createdAt,value
2022-09-17T05:36:26.414Z,9.99
2022-09-17T05:39:40.056Z,10.07
2022-09-17T05:42:50.236Z,10.13
2022-09-17T05:46:02.520Z,10.14
2022-09-17T05:49:12.036Z,10.11
2022-09-17T05:52:22.795Z,10.06
2022-09-17T05:55:32.507Z,10.10
2022-09-17T05:58:42.031Z,10.11
2022-09-17T06:01:53.734Z,10.15
2022-09-17T06:05:03.861Z,10.21
2022-09-17T06:08:14.577Z,10.30
2022-09-17T06:11:24.196Z,10.45
2022-09-17T06:14:33.778Z,10.55
2022-09-17T06:17:43.421Z,10.66
2022-09-17T06:20:55.819Z,10.79
2022-09-17T06:24:06.630Z,10.90
2022-09-17T06:27:18.852Z,11.00
2022-09-17T06:30:28.483Z,11.05
2022-09-17T06:33:37.993Z,11.01
2022-09-17T06:36:49.211Z,11.01
2022-09-17T06:40:00.905Z,11.09
2022-09-17T06:43:10.503Z,11.11
2022-09-17T06:46:22.486Z,11.19
2022-09-17T06:49:32.033Z,11.26
2022-09-17T06:52:48.843Z,11.31
2022-09-17T06:56:05.870Z,11.36
2022-09-17T06:59:16.106Z,11.41
2022-09-17T07:02:25.814Z,11.50
2022-09-17T07:05:35.314Z,11.70
2022-09-17T07:08:44.930Z,11.88
2022-09-17T07:11:58.490Z,12.05
2022-09-17T07:15:10.472Z,12.35
2022-09-17T07:18:20.023Z,12.59
2022-09-17T07:21:29.646Z,12.62
2022-09-17T07:24:39.141Z,12.62
2022-09-17T07:27:49.832Z,12.67
2022-09-17T07:30:59.372Z,12.60
2022-09-17T07:34:08.994Z,12.59
2022-09-17T07:37:20.256Z,12.81
2022-09-17T07:40:29.890Z,13.26
2022-09-17T07:43:52.817Z,13.70
2022-09-17T07:47:03.692Z,14.01
2022-09-17T07:50:13.221Z,13.95
2022-09-17T07:53:23.743Z,14.14
2022-09-17T07:56:33.317Z,14.41
2022-09-17T07:59:42.774Z,14.48
2022-09-17T08:02:55.746Z,14.71
2022-09-17T08:06:06.723Z,14.63
2022-09-17T08:09:18.478Z,14.73
2022-09-17T08:12:28.025Z,14.59
2022-09-17T08:15:37.503Z,14.86
2022-09-17T08:18:49.548Z,14.86
2022-09-17T08:21:59.227Z,14.94
2022-09-17T08:25:10.645Z,14.75
2022-09-17T08:28:20.177Z,14.72
2022-09-17T08:31:30.624Z,14.97
2022-09-17T08:34:41.462Z,15.38
2022-09-17T08:37:51.953Z,15.63
2022-09-17T08:41:12.581Z,15.38
2022-09-17T08:44:26.807Z,15.20
2022-09-17T08:47:40.849Z,15.96
2022-09-17T08:50:51.980Z,16.69
2022-09-17T08:54:08.794Z,17.21
2022-09-17T08:57:35.374Z,17.00
2022-09-17T09:01:04.874Z,16.83
2022-09-17T09:04:34.969Z,16.47
2022-09-17T09:07:51.656Z,16.59
2022-09-17T09:11:03.805Z,17.21
2022-09-17T09:14:20.991Z,17.89
2022-09-17T09:17:35.976Z,18.48
2022-09-17T09:20:51.632Z,18.01
2022-09-17T09:24:11.522Z,17.69
2022-09-17T09:27:28.269Z,17.45
2022-09-17T09:30:53.447Z,16.86
2022-09-17T09:34:04.574Z,16.60
2022-09-17T09:37:20.955Z,16.78
2022-09-17T09:40:37.886Z,16.88
2022-09-17T09:44:05.377Z,16.67
2022-09-17T09:47:33.488Z,16.51
2022-09-17T09:51:07.049Z,16.58
2022-09-17T09:54:32.116Z,16.79
2022-09-17T09:57:45.462Z,16.67
2022-09-17T10:00:54.987Z,16.67
2022-09-17T10:04:17.995Z,16.57
2022-09-17T10:07:27.526Z,16.47
2022-09-17T10:10:38.589Z,16.29
2022-09-17T10:13:49.979Z,16.38
2022-09-17T10:17:16.352Z,16.55
2022-09-17T10:20:26.061Z,16.55
2022-09-17T10:23:39.375Z,16.51
2022-09-17T10:26:49.136Z,16.53
2022-09-17T10:30:14.812Z,16.29
2022-09-17T10:33:27.510Z,15.94
2022-09-17T10:36:41.267Z,15.94
2022-09-17T10:39:50.848Z,16.02
2022-09-17T10:43:19.317Z,16.04
2022-09-17T10:46:33.809Z,16.02
2022-09-17T10:49:47.636Z,16.05
2022-09-17T10:53:01.143Z,15.85
2022-09-17T10:56:20.981Z,15.74
2022-09-17T10:59:54.118Z,15.57
2022-09-17T11:03:25.309Z,15.87
2022-09-17T11:06:59.592Z,16.98
2022-09-17T11:10:14.645Z,17.23
2022-09-17T11:13:33.863Z,17.03
2022-09-17T11:16:52.933Z,17.20
2022-09-17T11:20:21.244Z,18.21
2022-09-17T11:23:52.779Z,18.32
2022-09-17T11:27:14.602Z,18.46
2022-09-17T11:30:27.100Z,19.01
2022-09-17T11:33:57.476Z,19.76
2022-09-17T11:37:14.343Z,20.40
2022-09-17T11:40:39.380Z,21.23
2022-09-17T11:44:08.627Z,21.00
2022-09-17T11:47:25.417Z,20.25
2022-09-17T11:50:41.809Z,19.75
2022-09-17T11:53:58.214Z,18.82
2022-09-17T11:57:15.001Z,18.00
2022-09-17T12:00:24.777Z,18.17
2022-09-17T12:03:42.171Z,19.06
2022-09-17T12:07:01.082Z,20.38
2022-09-17T12:10:27.062Z,20.84
2022-09-17T12:13:41.623Z,20.22
2022-09-17T12:16:58.576Z,20.70
2022-09-17T12:20:23.791Z,20.75
2022-09-17T12:23:39.926Z,20.52
2022-09-17T12:26:59.829Z,19.93
2022-09-17T12:30:14.154Z,19.97
2022-09-17T12:33:33.986Z,19.75
2022-09-17T12:36:52.984Z,20.86
2022-09-17T12:40:15.160Z,21.24
2022-09-17T12:43:43.387Z,21.76
2022-09-17T12:47:08.889Z,22.15
2022-09-17T12:50:25.479Z,21.55
2022-09-17T12:53:41.072Z,20.74
2022-09-17T12:56:59.506Z,20.41
2022-09-17T13:00:13.737Z,20.24
2022-09-17T13:03:28.516Z,20.09
2022-09-17T13:06:59.730Z,19.28
2022-09-17T13:10:34.046Z,18.46
2022-09-17T13:13:51.164Z,17.99
2022-09-17T13:17:06.177Z,18.64
2022-09-17T13:20:22.590Z,19.14
2022-09-17T13:23:40.267Z,19.50
2022-09-17T13:26:50.279Z,20.06
2022-09-17T13:30:02.168Z,19.83
2022-09-17T13:33:13.372Z,19.29
2022-09-17T13:36:38.032Z,18.91
2022-09-17T13:39:49.862Z,18.89
2022-09-17T13:43:08.320Z,18.79
2022-09-17T13:46:24.001Z,18.48
2022-09-17T13:49:34.899Z,18.36
2022-09-17T13:52:47.814Z,18.11
2022-09-17T13:56:00.975Z,17.95
2022-09-17T13:59:21.457Z,17.70
2022-09-17T14:02:35.127Z,17.37
2022-09-17T14:05:46.060Z,17.16
2022-09-17T14:08:57.712Z,17.26
2022-09-17T14:12:34.224Z,16.94
2022-09-17T14:16:01.088Z,16.56
2022-09-17T14:19:25.107Z,16.27
2022-09-17T14:22:36.010Z,15.99
2022-09-17T14:25:50.800Z,15.76
2022-09-17T14:29:06.923Z,15.79
2022-09-17T14:32:21.198Z,15.81
2022-09-17T14:35:37.546Z,15.78
2022-09-17T14:38:52.523Z,15.71
2022-09-17T14:42:06.363Z,15.67
2022-09-17T14:45:20.672Z,15.63
2022-09-17T14:48:32.895Z,15.56
2022-09-17T14:51:50.073Z,15.57
2022-09-17T14:55:16.419Z,15.66
2022-09-17T14:58:34.737Z,15.73
2022-09-17T15:01:48.703Z,15.49
2022-09-17T15:04:58.919Z,15.53
2022-09-17T15:08:15.504Z,15.47
2022-09-17T15:11:26.453Z,15.56
2022-09-17T15:14:40.262Z,15.53
2022-09-17T15:17:51.115Z,15.63
2022-09-17T15:21:04.193Z,15.58
2022-09-17T15:24:22.423Z,15.62
2022-09-17T15:27:36.531Z,15.62
2022-09-17T15:30:46.789Z,15.50
2022-09-17T15:33:59.592Z,15.33
2022-09-17T15:37:20.220Z,15.19
2022-09-17T15:40:32.735Z,15.17
2022-09-17T15:43:45.946Z,15.15
2022-09-17T15:46:56.886Z,14.78
2022-09-17T15:50:21.661Z,14.56
2022-09-17T15:53:35.329Z,14.37
2022-09-17T15:56:47.365Z,14.27
2022-09-17T16:00:08.171Z,14.07
2022-09-17T16:04:05.401Z,13.95
2022-09-17T16:07:28.723Z,13.91
2022-09-17T16:10:44.274Z,13.84
2022-09-17T16:13:56.878Z,13.77
2022-09-17T16:17:22.291Z,13.77
2022-09-17T16:20:31.876Z,13.84
2022-09-17T16:23:44.696Z,13.86
2022-09-17T16:26:54.220Z,13.86
2022-09-17T16:30:11.941Z,13.70
2022-09-17T16:33:22.869Z,13.49
2022-09-17T16:36:32.913Z,13.44
2022-09-17T16:39:42.796Z,13.30
2022-09-17T16:42:52.468Z,13.20
2022-09-17T16:46:03.213Z,13.11
2022-09-17T16:49:15.320Z,13.18
2022-09-17T16:52:27.173Z,13.20
2022-09-17T16:55:37.526Z,13.14
2022-09-17T16:58:47.466Z,13.08
2022-09-17T17:01:57.200Z,12.94
2022-09-17T17:05:11.635Z,12.87
2022-09-17T17:08:22.724Z,12.70
2022-09-17T17:11:32.389Z,12.63
2022-09-17T17:14:42.043Z,12.57
2022-09-17T17:17:52.321Z,12.43
2022-09-17T17:21:09.750Z,12.29
2022-09-17T17:24:28.965Z,12.26
2022-09-17T17:27:46.199Z,12.16
2022-09-17T17:30:59.898Z,12.05
2022-09-17T17:34:14.599Z,11.88
2022-09-17T17:37:27.100Z,11.77
2022-09-17T17:40:38.914Z,11.75
2022-09-17T17:43:48.575Z,11.66
2022-09-17T17:46:58.509Z,11.70
2022-09-17T17:50:11.558Z,11.59
2022-09-17T17:53:24.748Z,11.45
2022-09-17T17:56:34.331Z,11.45
2022-09-17T17:59:43.788Z,11.46
2022-09-17T18:02:53.615Z,11.39
2022-09-17T18:06:06.303Z,11.41
2022-09-17T18:09:17.631Z,11.45
2022-09-17T18:12:32.993Z,11.47
2022-09-17T18:15:51.682Z,11.53
2022-09-17T18:19:02.977Z,11.59
2022-09-17T18:22:15.140Z,11.57
2022-09-17T18:25:28.123Z,11.51
2022-09-17T18:28:40.561Z,11.34
2022-09-17T18:31:50.335Z,11.15
2022-09-17T18:35:00.051Z,11.11
2022-09-17T18:38:09.557Z,11.13
2022-09-17T18:41:21.991Z,11.24
2022-09-17T18:44:31.580Z,11.33
2022-09-17T18:47:44.072Z,11.39
2022-09-17T18:51:05.969Z,11.44
2022-09-17T18:54:18.316Z,11.41
2022-09-17T18:57:37.214Z,11.42
2022-09-17T19:00:49.627Z,11.44
2022-09-17T19:04:00.422Z,11.52
2022-09-17T19:07:10.063Z,11.43
2022-09-17T19:10:19.817Z,11.34
2022-09-17T19:13:36.604Z,11.31
2022-09-17T19:16:56.346Z,11.27
2022-09-17T19:20:07.793Z,11.28
2022-09-17T19:23:21.744Z,11.24
2022-09-17T19:26:31.377Z,11.15
2022-09-17T19:29:42.382Z,11.08
2022-09-17T19:32:52.703Z,11.06
2022-09-17T19:36:04.047Z,10.99
2022-09-17T19:39:13.888Z,10.97
2022-09-17T19:42:23.497Z,10.90
2022-09-17T19:45:39.134Z,10.90
2022-09-17T19:48:50.609Z,10.93
2022-09-17T19:52:00.239Z,10.99
2022-09-17T19:55:13.041Z,11.02
2022-09-17T19:58:26.113Z,11.07
2022-09-17T20:01:36.978Z,11.09
2022-09-17T20:04:47.139Z,11.13
2022-09-17T20:07:56.916Z,11.14
2022-09-17T20:11:08.116Z,11.08
2022-09-17T20:14:17.964Z,10.93
2022-09-17T20:17:29.519Z,10.89
2022-09-17T20:20:39.309Z,10.84
2022-09-17T20:23:49.714Z,10.87
